createdAt,value
2023-12-23T00:00:16.416Z,84.41
2023-12-23T00:02:43.386Z,85.04
2023-12-23T00:05:10.599Z,85.98
2023-12-23T00:07:37.722Z,87.26
2023-12-23T00:10:05.866Z,88.21
2023-12-23T00:12:35.526Z,86.73
2023-12-23T00:15:02.578Z,86.60
2023-12-23T00:17:29.787Z,86.29
2023-12-23T00:19:57.160Z,86.52
2023-12-23T00:22:24.172Z,86.78
2023-12-23T00:24:51.127Z,87.28
2023-12-23T00:27:18.132Z,87.92
2023-12-23T00:29:47.773Z,88.24
2023-12-23T00:32:14.755Z,88.29
2023-12-23T00:34:41.758Z,88.17
2023-12-23T00:37:08.809Z,87.67
2023-12-23T00:39:35.764Z,87.52
2023-12-23T00:42:02.751Z,87.14
2023-12-23T00:44:29.754Z,87.10
2023-12-23T00:46:59.338Z,87.62
2023-12-23T00:49:26.448Z,89.00
2023-12-23T00:51:53.520Z,90.47
2023-12-23T00:54:20.530Z,91.15
2023-12-23T00:56:47.542Z,93.59
2023-12-23T00:59:14.588Z,95.18
2023-12-23T01:01:43.228Z,95.52
2023-12-23T01:04:12.824Z,95.46
2023-12-23T01:06:39.906Z,94.55
2023-12-23T01:09:06.979Z,93.95
2023-12-23T01:11:33.971Z,92.70
2023-12-23T01:14:01.008Z,91.92
2023-12-23T01:16:28.108Z,91.58
2023-12-23T01:18:55.149Z,90.16
2023-12-23T01:21:24.799Z,88.73
2023-12-23T01:23:51.813Z,88.83
2023-12-23T01:26:18.953Z,89.27
2023-12-23T01:28:46.013Z,89.32
2023-12-23T01:31:13.016Z,88.82
2023-12-23T01:33:40.114Z,88.19
2023-12-23T01:36:07.851Z,87.65
2023-12-23T01:38:37.519Z,86.94
2023-12-23T01:41:04.898Z,86.68
2023-12-23T01:43:31.948Z,86.70
2023-12-23T01:46:01.417Z,86.63
2023-12-23T01:48:30.603Z,86.76
2023-12-23T01:50:59.092Z,87.93
2023-12-23T01:53:27.752Z,88.74
2023-12-23T01:55:58.139Z,89.04
2023-12-23T01:58:25.161Z,88.75
2023-12-23T02:00:52.553Z,87.38
2023-12-23T02:03:19.909Z,85.97
2023-12-23T02:05:47.302Z,85.51
2023-12-23T02:08:14.916Z,85.45
2023-12-23T02:10:42.314Z,85.10
2023-12-23T02:13:22.595Z,84.90
2023-12-23T02:15:53.924Z,84.81
2023-12-23T02:18:23.975Z,84.04
2023-12-23T02:20:55.311Z,83.52
2023-12-23T02:23:22.484Z,83.78
2023-12-23T02:25:56.688Z,83.30
2023-12-23T02:28:25.756Z,82.71
2023-12-23T02:30:55.179Z,82.46
2023-12-23T02:33:22.795Z,82.71
2023-12-23T02:35:50.069Z,82.14
2023-12-23T02:38:20.854Z,81.79
2023-12-23T02:40:47.917Z,81.43
2023-12-23T02:43:14.937Z,81.21
2023-12-23T02:45:42.007Z,81.23
2023-12-23T02:48:09.105Z,80.74
2023-12-23T02:50:36.134Z,80.75
2023-12-23T02:53:03.262Z,80.71
2023-12-23T02:55:32.828Z,80.71
2023-12-23T02:57:59.777Z,81.05
2023-12-23T03:00:26.816Z,80.92
2023-12-23T03:02:53.878Z,81.05
2023-12-23T03:05:20.864Z,81.76
2023-12-23T03:07:47.958Z,81.89
2023-12-23T03:10:15.012Z,82.35
2023-12-23T03:12:44.605Z,82.50
2023-12-23T03:15:11.683Z,82.57
2023-12-23T03:17:38.696Z,82.65
2023-12-23T03:20:07.691Z,83.02
2023-12-23T03:22:34.790Z,83.22
2023-12-23T03:25:01.743Z,83.55
2023-12-23T03:27:28.679Z,83.50
2023-12-23T03:29:58.236Z,83.62
2023-12-23T03:32:25.302Z,83.81
2023-12-23T03:34:52.420Z,84.17
2023-12-23T03:37:19.535Z,84.03
2023-12-23T03:39:46.532Z,83.82
2023-12-23T03:42:13.516Z,83.90
2023-12-23T03:44:40.584Z,83.46
2023-12-23T03:47:10.142Z,83.28
2023-12-23T03:49:37.202Z,82.83
2023-12-23T03:52:04.749Z,82.89
2023-12-23T03:54:31.761Z,82.50
2023-12-23T03:56:58.734Z,82.21
2023-12-23T03:59:25.797Z,82.21
2023-12-23T04:01:52.930Z,82.15
2023-12-23T04:04:22.488Z,82.41
2023-12-23T04:06:49.473Z,82.13
2023-12-23T04:09:18.365Z,81.81
2023-12-23T04:11:45.489Z,81.99
2023-12-23T04:14:12.607Z,81.86
2023-12-23T04:16:39.718Z,82.11
2023-12-23T04:19:06.852Z,81.66
2023-12-23T04:21:36.727Z,81.75
2023-12-23T04:24:04.195Z,81.89
2023-12-23T04:26:31.407Z,81.89
2023-12-23T04:28:58.519Z,81.80
2023-12-23T04:31:25.741Z,81.52
2023-12-23T04:33:52.913Z,81.31
2023-12-23T04:36:20.118Z,81.44
2023-12-23T04:38:49.815Z,81.68
2023-12-23T04:41:17.016Z,81.36
2023-12-23T04:43:44.153Z,81.61
2023-12-23T04:46:11.428Z,81.53
2023-12-23T04:48:38.511Z,81.74
2023-12-23T04:51:05.935Z,81.78
2023-12-23T04:53:32.977Z,82.23
2023-12-23T04:56:02.635Z,82.33
2023-12-23T04:58:29.647Z,82.76
2023-12-23T05:00:56.680Z,83.18
2023-12-23T05:03:23.965Z,83.92
2023-12-23T05:05:51.101Z,84.34
2023-12-23T05:08:18.356Z,84.65
2023-12-23T05:10:45.472Z,85.00
2023-12-23T05:13:15.768Z,86.33
2023-12-23T05:15:42.785Z,88.24
2023-12-23T05:18:09.817Z,89.62
2023-12-23T05:20:36.958Z,90.44
2023-12-23T05:23:04.203Z,91.10
2023-12-23T05:25:31.253Z,91.98
2023-12-23T05:27:58.286Z,92.52
2023-12-23T05:30:27.977Z,92.37
2023-12-23T05:32:55.249Z,92.52
2023-12-23T05:35:22.566Z,92.44
2023-12-23T05:37:49.692Z,92.28
2023-12-23T05:40:16.918Z,92.34
2023-12-23T05:42:43.978Z,92.92
2023-12-23T05:45:11.225Z,93.48
2023-12-23T05:47:40.967Z,93.46
2023-12-23T05:50:09.241Z,93.77
2023-12-23T05:52:36.254Z,93.79
2023-12-23T05:55:03.414Z,94.08
2023-12-23T05:57:30.382Z,94.01
2023-12-23T05:59:57.348Z,93.85
2023-12-23T06:02:24.493Z,93.38
2023-12-23T06:04:54.112Z,93.93
2023-12-23T06:07:21.106Z,93.71
2023-12-23T06:09:48.168Z,93.80
2023-12-23T06:12:15.174Z,93.73
2023-12-23T06:14:42.722Z,93.18
2023-12-23T06:17:09.871Z,93.27
2023-12-23T06:19:36.885Z,93.17
2023-12-23T06:22:06.550Z,92.59
2023-12-23T06:24:33.536Z,92.13
2023-12-23T06:27:00.561Z,90.97
2023-12-23T06:29:27.585Z,90.31
2023-12-23T06:31:54.815Z,90.03
2023-12-23T06:34:21.784Z,89.47
2023-12-23T06:36:48.709Z,89.43
2023-12-23T06:39:18.292Z,88.69
2023-12-23T06:41:47.930Z,88.23
2023-12-23T06:44:15.234Z,88.42
2023-12-23T06:46:42.245Z,88.17
2023-12-23T06:49:09.342Z,88.67
2023-12-23T06:51:36.372Z,89.32
2023-12-23T06:54:03.355Z,89.71
2023-12-23T06:56:32.976Z,90.48
2023-12-23T06:58:59.987Z,91.33
2023-12-23T07:01:36.315Z,92.50
2023-12-23T07:04:03.439Z,92.68
2023-12-23T07:06:30.522Z,93.84
2023-12-23T07:08:57.541Z,94.95
2023-12-23T07:11:25.337Z,96.06
2023-12-23T07:13:55.059Z,96.41
2023-12-23T07:16:22.109Z,97.35
2023-12-23T07:18:49.122Z,98.43
2023-12-23T07:21:16.133Z,99.75
2023-12-23T07:23:43.145Z,99.72
2023-12-23T07:26:12.472Z,100.00
2023-12-23T07:28:39.557Z,100.00
2023-12-23T07:31:09.249Z,100.00
2023-12-23T07:33:36.291Z,100.00
2023-12-23T07:36:03.662Z,100.00
2023-12-23T07:38:31.007Z,100.00
2023-12-23T07:40:58.202Z,99.84
2023-12-23T07:43:25.236Z,99.54
2023-12-23T07:45:52.270Z,99.79
2023-12-23T07:48:21.856Z,100.00
2023-12-23T07:50:48.913Z,100.00
2023-12-23T07:53:16.092Z,100.00
2023-12-23T07:55:43.199Z,100.00
2023-12-23T07:58:10.194Z,100.00
2023-12-23T08:00:37.319Z,100.00
2023-12-23T08:03:04.884Z,100.00
2023-12-23T08:05:34.520Z,100.00
2023-12-23T08:08:01.616Z,100.00
2023-12-23T08:10:28.642Z,98.77
2023-12-23T08:12:55.652Z,97.44
2023-12-23T08:15:22.654Z,96.22
2023-12-23T08:17:49.844Z,95.02
2023-12-23T08:20:17.074Z,94.06
2023-12-23T08:22:46.870Z,93.49
2023-12-23T08:25:13.982Z,91.87
2023-12-23T08:27:41.127Z,91.64
2023-12-23T08:30:09.598Z,90.64
2023-12-23T08:32:36.787Z,90.25
2023-12-23T08:35:04.207Z,89.38
2023-12-23T08:37:31.186Z,88.98
2023-12-23T08:40:00.761Z,88.78
2023-12-23T08:42:27.714Z,88.74
2023-12-23T08:44:54.936Z,89.38
2023-12-23T08:47:22.015Z,89.43
2023-12-23T08:49:49.001Z,89.65
2023-12-23T08:52:16.066Z,89.37
2023-12-23T08:54:43.038Z,89.18
2023-12-23T08:57:12.688Z,89.44
2023-12-23T08:59:39.650Z,90.21
2023-12-23T09:02:06.729Z,90.03
2023-12-23T09:04:33.761Z,89.04
2023-12-23T09:07:01.042Z,87.75
2023-12-23T09:09:28.042Z,87.69
2023-12-23T09:11:55.072Z,87.45
2023-12-23T09:14:24.821Z,87.20
2023-12-23T09:16:51.919Z,87.82
2023-12-23T09:19:19.010Z,88.33
2023-12-23T09:21:46.046Z,88.90
2023-12-23T09:24:13.158Z,89.04
2023-12-23T09:26:40.140Z,88.84
2023-12-23T09:29:07.156Z,88.68
2023-12-23T09:31:36.782Z,88.77
2023-12-23T09:34:04.055Z,89.07
2023-12-23T09:36:31.256Z,89.35
2023-12-23T09:38:58.343Z,90.20
2023-12-23T09:41:25.580Z,89.82
2023-12-23T09:43:53.786Z,89.89
2023-12-23T09:46:20.975Z,90.11
2023-12-23T09:48:50.947Z,90.44
2023-12-23T09:51:18.104Z,91.18
2023-12-23T09:53:48.074Z,92.00
2023-12-23T09:56:15.366Z,92.61
2023-12-23T09:58:44.750Z,92.57
2023-12-23T10:01:12.127Z,91.86
2023-12-23T10:03:39.240Z,93.10
2023-12-23T10:06:12.473Z,92.53
2023-12-23T10:08:40.211Z,92.60
2023-12-23T10:11:07.261Z,92.78
2023-12-23T10:13:34.300Z,92.08
2023-12-23T10:16:01.394Z,91.75
2023-12-23T10:18:28.563Z,91.46
2023-12-23T10:20:55.669Z,91.30
2023-12-23T10:23:25.381Z,90.59
2023-12-23T10:25:52.902Z,90.12
2023-12-23T10:28:20.987Z,90.16
2023-12-23T10:30:49.289Z,90.72
2023-12-23T10:33:18.325Z,90.42
2023-12-23T10:35:46.722Z,89.94
2023-12-23T10:38:16.658Z,89.91
2023-12-23T10:40:52.213Z,90.05
2023-12-23T10:43:20.938Z,89.84
2023-12-23T10:45:49.623Z,90.02
2023-12-23T10:48:18.171Z,90.03
2023-12-23T10:50:49.015Z,90.64
2023-12-23T10:53:18.629Z,91.27
2023-12-23T10:55:49.091Z,91.56
2023-12-23T10:58:19.624Z,91.41
2023-12-23T11:00:46.674Z,91.53
2023-12-23T11:03:14.485Z,90.95
2023-12-23T11:05:43.739Z,90.33
2023-12-23T11:08:17.696Z,89.36
2023-12-23T11:10:49.414Z,88.51
2023-12-23T11:13:16.948Z,88.63
2023-12-23T11:15:43.983Z,88.22
2023-12-23T11:18:11.362Z,87.79
2023-12-23T11:20:45.804Z,86.61
2023-12-23T11:23:34.814Z,87.08
2023-12-23T11:26:05.219Z,87.48
2023-12-23T11:28:35.896Z,87.68
2023-12-23T11:31:04.597Z,87.59
2023-12-23T11:33:34.841Z,87.09
2023-12-23T11:36:03.170Z,87.31
2023-12-23T11:38:45.314Z,87.04
2023-12-23T11:41:15.704Z,86.80
2023-12-23T11:43:45.744Z,87.06
2023-12-23T11:46:13.705Z,87.49
2023-12-23T11:48:41.354Z,88.44
2023-12-23T11:51:08.955Z,88.08
2023-12-23T11:53:36.224Z,87.71
2023-12-23T11:56:05.432Z,87.56
2023-12-23T11:58:35.176Z,87.06
2023-12-23T12:01:02.283Z,86.88
2023-12-23T12:03:29.413Z,86.75
2023-12-23T12:05:57.255Z,86.34
2023-12-23T12:08:26.978Z,86.78
2023-12-23T12:10:54.976Z,86.91
2023-12-23T12:13:22.075Z,86.99
2023-12-23T12:15:51.788Z,87.40
2023-12-23T12:18:18.862Z,88.42
2023-12-23T12:20:46.377Z,89.76
2023-12-23T12:23:13.436Z,90.76
2023-12-23T12:25:40.993Z,91.72
2023-12-23T12:28:08.071Z,92.06
2023-12-23T12:30:35.119Z,92.34
2023-12-23T12:33:04.859Z,92.43
2023-12-23T12:35:31.938Z,91.71
2023-12-23T12:38:02.800Z,91.89
2023-12-23T12:40:35.017Z,91.68
2023-12-23T12:43:05.771Z,91.13
2023-12-23T12:45:37.923Z,90.14
2023-12-23T12:48:10.166Z,90.58
2023-12-23T12:50:39.569Z,90.11
2023-12-23T12:53:06.614Z,90.07
2023-12-23T12:55:33.799Z,90.17
2023-12-23T12:58:00.807Z,90.45
2023-12-23T13:00:27.799Z,89.86
2023-12-23T13:02:55.099Z,89.20
2023-12-23T13:05:24.861Z,89.31
2023-12-23T13:07:51.991Z,89.13
2023-12-23T13:10:19.120Z,88.74
2023-12-23T13:12:46.183Z,87.40
2023-12-23T13:15:13.188Z,86.65
2023-12-23T13:17:40.562Z,86.20
2023-12-23T13:20:09.239Z,85.77
2023-12-23T13:22:39.217Z,86.05
2023-12-23T13:25:07.485Z,86.74
2023-12-23T13:27:34.595Z,86.35
2023-12-23T13:30:01.703Z,86.61
2023-12-23T13:32:28.915Z,86.08
2023-12-23T13:34:57.005Z,85.81
2023-12-23T13:37:24.075Z,86.47
2023-12-23T13:39:53.760Z,86.81
2023-12-23T13:42:20.857Z,87.74
2023-12-23T13:44:48.031Z,87.26
2023-12-23T13:47:15.293Z,86.08
2023-12-23T13:49:42.402Z,85.27
2023-12-23T13:52:09.554Z,85.13
2023-12-23T13:54:36.998Z,85.66
2023-12-23T13:57:06.677Z,86.37
2023-12-23T13:59:33.654Z,86.70
2023-12-23T14:02:00.877Z,87.54
2023-12-23T14:04:27.954Z,88.51
2023-12-23T14:06:54.920Z,89.82
2023-12-23T14:09:21.928Z,90.37
2023-12-23T14:11:48.940Z,90.34
2023-12-23T14:14:18.686Z,90.37
2023-12-23T14:16:45.750Z,90.64
2023-12-23T14:19:12.974Z,90.51
2023-12-23T14:21:39.974Z,89.94
2023-12-23T14:24:07.295Z,89.26
2023-12-23T14:26:34.454Z,88.95
2023-12-23T14:29:01.517Z,88.98
2023-12-23T14:31:31.309Z,88.31
2023-12-23T14:33:58.564Z,87.62
2023-12-23T14:36:25.973Z,87.39
2023-12-23T14:38:53.526Z,88.15
2023-12-23T14:41:20.641Z,88.74
2023-12-23T14:43:47.757Z,88.12
2023-12-23T14:46:14.811Z,87.09
2023-12-23T14:48:44.516Z,87.03
2023-12-23T14:51:11.536Z,87.39
2023-12-23T14:53:38.658Z,87.84
2023-12-23T14:56:06.056Z,88.10
2023-12-23T14:58:33.064Z,88.37
2023-12-23T15:01:00.048Z,88.37
2023-12-23T15:03:27.181Z,88.10
2023-12-23T15:05:56.889Z,88.18
2023-12-23T15:08:24.011Z,88.50
2023-12-23T15:10:51.035Z,88.10
2023-12-23T15:13:17.987Z,87.97
2023-12-23T15:15:44.962Z,87.67
2023-12-23T15:18:14.382Z,87.74
2023-12-23T15:20:41.447Z,87.48
2023-12-23T15:23:11.097Z,87.52
2023-12-23T15:25:38.299Z,87.60
2023-12-23T15:28:05.508Z,86.49
2023-12-23T15:30:32.553Z,86.27
2023-12-23T15:32:59.698Z,85.66
2023-12-23T15:35:26.774Z,85.54
2023-12-23T15:37:53.848Z,85.62
2023-12-23T15:40:23.544Z,84.92
2023-12-23T15:42:50.925Z,83.97
2023-12-23T15:45:18.197Z,83.10
2023-12-23T15:47:45.331Z,82.56
2023-12-23T15:50:12.472Z,81.90
2023-12-23T15:52:39.466Z,81.86
2023-12-23T15:55:07.860Z,81.52
2023-12-23T15:57:38.412Z,81.50
2023-12-23T16:00:06.718Z,81.28
2023-12-23T16:02:33.746Z,80.90
2023-12-23T16:05:00.946Z,80.80
2023-12-23T16:07:28.044Z,80.06
2023-12-23T16:09:54.985Z,80.00
2023-12-23T16:12:22.147Z,79.75
2023-12-23T16:14:51.772Z,79.35
2023-12-23T16:17:18.803Z,79.39
2023-12-23T16:19:45.875Z,79.11
2023-12-23T16:22:12.957Z,79.01
2023-12-23T16:24:40.065Z,78.50
2023-12-23T16:27:07.534Z,78.37
2023-12-23T16:29:34.579Z,78.23
2023-12-23T16:32:04.741Z,78.18
2023-12-23T16:34:31.759Z,77.83
2023-12-23T16:36:58.737Z,77.78
2023-12-23T16:39:25.897Z,77.96
2023-12-23T16:41:52.899Z,77.60
2023-12-23T16:44:20.045Z,77.62
2023-12-23T16:46:47.138Z,77.44
2023-12-23T16:49:16.970Z,77.36
2023-12-23T16:51:44.013Z,76.81
2023-12-23T16:54:11.092Z,76.47
2023-12-23T16:56:38.441Z,76.58
2023-12-23T16:59:05.571Z,76.45
2023-12-23T17:01:32.760Z,76.15
2023-12-23T17:03:59.865Z,76.19
2023-12-23T17:06:29.533Z,76.07
2023-12-23T17:08:59.626Z,75.69
2023-12-23T17:11:26.786Z,75.70
2023-12-23T17:13:53.858Z,75.82
2023-12-23T17:16:20.970Z,75.45
2023-12-23T17:18:48.429Z,75.53
2023-12-23T17:21:15.539Z,75.26
2023-12-23T17:23:45.305Z,75.62
2023-12-23T17:26:12.356Z,75.64
2023-12-23T17:28:39.349Z,75.79
2023-12-23T17:31:06.440Z,75.78
2023-12-23T17:33:33.557Z,75.65
2023-12-23T17:36:00.633Z,75.87
2023-12-23T17:38:27.643Z,75.89
2023-12-23T17:40:57.258Z,75.74
2023-12-23T17:43:24.236Z,75.78
2023-12-23T17:45:51.230Z,75.05
2023-12-23T17:48:18.287Z,74.99
2023-12-23T17:50:45.286Z,74.88
2023-12-23T17:53:12.303Z,74.70
2023-12-23T17:55:39.449Z,74.88
2023-12-23T17:58:09.054Z,74.69
2023-12-23T18:00:36.047Z,74.85
2023-12-23T18:03:03.739Z,75.08
2023-12-23T18:05:30.886Z,75.07
2023-12-23T18:07:58.128Z,75.30
2023-12-23T18:10:25.255Z,75.39
2023-12-23T18:12:52.446Z,75.34
2023-12-23T18:15:22.189Z,75.58
2023-12-23T18:17:49.685Z,75.23
2023-12-23T18:20:16.896Z,75.26
2023-12-23T18:22:43.956Z,75.53
2023-12-23T18:25:11.007Z,75.59
2023-12-23T18:27:37.986Z,75.98
2023-12-23T18:30:06.496Z,75.86
2023-12-23T18:32:36.200Z,76.03
2023-12-23T18:35:03.604Z,75.85
2023-12-23T18:37:30.659Z,75.92
2023-12-23T18:39:57.768Z,75.87
2023-12-23T18:42:24.740Z,75.86
2023-12-23T18:44:51.743Z,75.78
2023-12-23T18:47:18.973Z,75.71
2023-12-23T18:49:48.639Z,75.89
2023-12-23T18:52:15.616Z,75.93
2023-12-23T18:54:42.699Z,76.36
2023-12-23T18:57:09.789Z,76.30
2023-12-23T18:59:36.828Z,76.50
2023-12-23T19:02:04.301Z,76.92
2023-12-23T19:04:31.404Z,76.97
2023-12-23T19:07:01.010Z,76.83
2023-12-23T19:09:28.023Z,76.90
2023-12-23T19:11:55.032Z,76.39
2023-12-23T19:14:22.038Z,76.71
2023-12-23T19:16:48.979Z,76.73
2023-12-23T19:19:16.270Z,76.62
2023-12-23T19:21:44.460Z,76.84
2023-12-23T19:24:14.344Z,76.71
2023-12-23T19:26:41.377Z,76.97
2023-12-23T19:29:08.484Z,77.22
2023-12-23T19:31:38.986Z,76.86
2023-12-23T19:34:06.042Z,77.33
2023-12-23T19:36:33.015Z,77.55
2023-12-23T19:39:00.005Z,77.08
2023-12-23T19:41:29.738Z,77.57
2023-12-23T19:43:56.830Z,77.99
2023-12-23T19:46:23.861Z,79.32
2023-12-23T19:48:50.903Z,80.68
2023-12-23T19:51:17.918Z,81.89
2023-12-23T19:53:44.841Z,82.59
2023-12-23T19:56:12.837Z,83.96
2023-12-23T19:58:42.548Z,83.95
2023-12-23T20:01:09.667Z,84.12
2023-12-23T20:03:39.008Z,84.38
2023-12-23T20:06:08.202Z,84.52
2023-12-23T20:08:35.313Z,84.67
2023-12-23T20:11:02.533Z,84.92
2023-12-23T20:13:29.657Z,84.34
2023-12-23T20:15:59.331Z,84.67
2023-12-23T20:18:29.406Z,83.75
2023-12-23T20:20:56.770Z,83.21
2023-12-23T20:23:23.890Z,82.71
2023-12-23T20:25:50.911Z,82.61
2023-12-23T20:28:18.761Z,81.99
2023-12-23T20:30:45.756Z,81.78
2023-12-23T20:33:15.518Z,81.52
2023-12-23T20:35:42.793Z,81.64
2023-12-23T20:38:09.900Z,81.53
2023-12-23T20:40:37.174Z,81.41
2023-12-23T20:43:04.417Z,81.81
2023-12-23T20:45:31.374Z,82.20
2023-12-23T20:47:58.432Z,82.67
2023-12-23T20:50:28.255Z,82.92
2023-12-23T20:52:55.573Z,83.85
2023-12-23T20:55:22.655Z,84.67
2023-12-23T20:57:49.643Z,84.90
2023-12-23T21:00:17.132Z,85.06
2023-12-23T21:02:44.231Z,84.56
2023-12-23T21:05:11.360Z,84.82
2023-12-23T21:07:41.626Z,84.42
2023-12-23T21:10:09.615Z,84.22
2023-12-23T21:12:36.900Z,84.06
2023-12-23T21:15:04.481Z,84.58
2023-12-23T21:17:31.637Z,83.23
2023-12-23T21:19:58.805Z,82.37
2023-12-23T21:22:25.833Z,82.63
2023-12-23T21:24:55.380Z,82.73
2023-12-23T21:27:22.814Z,82.43
2023-12-23T21:29:50.034Z,82.30
2023-12-23T21:32:17.194Z,81.95
2023-12-23T21:34:44.841Z,81.75
2023-12-23T21:37:11.798Z,81.71
2023-12-23T21:39:38.885Z,81.59
2023-12-23T21:42:08.683Z,82.09
2023-12-23T21:44:35.705Z,82.53
2023-12-23T21:47:02.690Z,83.01
2023-12-23T21:49:29.937Z,83.58
2023-12-23T21:51:57.045Z,83.47
2023-12-23T21:54:24.008Z,84.09
2023-12-23T21:56:51.005Z,84.66
2023-12-23T21:59:20.551Z,85.44
2023-12-23T22:01:47.841Z,85.92
2023-12-23T22:04:14.817Z,86.15
2023-12-23T22:06:41.760Z,86.46
2023-12-23T22:09:08.711Z,86.25
2023-12-23T22:11:35.751Z,86.75
2023-12-23T22:14:02.807Z,86.59
2023-12-23T22:16:32.431Z,86.20
2023-12-23T22:18:59.498Z,86.54
2023-12-23T22:21:26.468Z,86.97
2023-12-23T22:23:53.477Z,86.68
2023-12-23T22:26:20.534Z,86.62
2023-12-23T22:28:47.633Z,87.44
2023-12-23T22:31:14.683Z,87.27
2023-12-23T22:33:44.353Z,87.26
2023-12-23T22:36:11.472Z,87.41
2023-12-23T22:38:38.550Z,87.09
2023-12-23T22:41:06.352Z,86.68
2023-12-23T22:43:33.614Z,86.65
2023-12-23T22:46:00.639Z,87.02
2023-12-23T22:48:27.627Z,86.95
2023-12-23T22:50:57.279Z,87.41
2023-12-23T22:53:24.334Z,87.46
2023-12-23T22:55:51.379Z,87.68
2023-12-23T22:58:18.388Z,87.36
2023-12-23T23:00:45.388Z,87.00
2023-12-23T23:03:12.421Z,86.98
2023-12-23T23:05:39.559Z,86.65
2023-12-23T23:08:09.347Z,86.32
2023-12-23T23:10:36.333Z,85.69
2023-12-23T23:13:03.306Z,84.92
2023-12-23T23:15:30.324Z,84.21
2023-12-23T23:17:57.676Z,84.20
2023-12-23T23:20:24.862Z,84.02
2023-12-23T23:22:52.623Z,83.70
2023-12-23T23:25:22.365Z,83.19
2023-12-23T23:27:49.344Z,82.71
2023-12-23T23:30:16.646Z,82.54
2023-12-23T23:32:43.711Z,82.30
2023-12-23T23:35:12.249Z,82.21
2023-12-23T23:37:39.800Z,81.83
2023-12-23T23:40:08.013Z,81.30
2023-12-23T23:42:37.549Z,81.48
2023-12-23T23:45:05.404Z,81.24
2023-12-23T23:47:32.491Z,80.99
2023-12-23T23:49:59.559Z,80.75
2023-12-23T23:52:26.771Z,80.74
2023-12-23T23:54:53.938Z,80.82
2023-12-23T23:57:20.888Z,80.76
2023-12-23T23:59:50.498Z,80.60
